createdAt,value
2019-01-25T00:02:00.636Z,18.73
2019-01-25T00:04:30.833Z,19.07
2019-01-25T00:07:01.017Z,18.55
2019-01-25T00:09:31.314Z,19.00
2019-01-25T00:12:01.468Z,18.25
2019-01-25T00:14:31.674Z,18.98
2019-01-25T00:17:01.824Z,18.27
2019-01-25T00:19:32.254Z,18.35
2019-01-25T00:22:02.409Z,19.77
2019-01-25T00:24:32.613Z,19.45
2019-01-25T00:27:02.753Z,18.95
2019-01-25T00:29:33.013Z,19.23
2019-01-25T00:32:03.134Z,18.52
2019-01-25T00:34:33.356Z,18.98
2019-01-25T00:37:03.513Z,19.20
2019-01-25T00:39:33.776Z,19.45
2019-01-25T00:42:03.914Z,19.57
2019-01-25T00:44:34.120Z,19.27
2019-01-25T00:47:04.348Z,19.55
2019-01-25T00:49:34.808Z,19.23
2019-01-25T00:52:04.944Z,19.20
2019-01-25T00:54:35.187Z,19.20
2019-01-25T00:57:05.435Z,18.07
2019-01-25T00:59:35.635Z,18.23
2019-01-25T01:02:05.895Z,18.40
2019-01-25T01:04:36.118Z,19.37
2019-01-25T01:07:06.293Z,19.27
2019-01-25T01:09:36.548Z,19.15
2019-01-25T01:12:06.728Z,19.57
2019-01-25T01:14:36.942Z,19.00
2019-01-25T01:17:07.136Z,18.57
2019-01-25T01:19:37.360Z,20.20
2019-01-25T01:22:07.536Z,19.45
2019-01-25T01:24:37.764Z,20.02
2019-01-25T01:27:07.921Z,19.40
2019-01-25T01:29:38.118Z,17.90
2019-01-25T01:32:08.270Z,19.82
2019-01-25T01:34:38.565Z,18.60
2019-01-25T01:37:08.731Z,19.37
2019-01-25T01:39:39.167Z,19.25
2019-01-25T01:42:09.403Z,19.92
2019-01-25T01:44:39.649Z,18.95
2019-01-25T01:47:09.807Z,18.85
2019-01-25T01:49:40.022Z,19.30
2019-01-25T01:52:10.206Z,18.52
2019-01-25T01:54:40.416Z,19.48
2019-01-25T01:57:10.523Z,18.12
2019-01-25T01:59:40.718Z,18.70
2019-01-25T02:02:10.893Z,19.12
2019-01-25T02:04:41.101Z,17.65
2019-01-25T02:07:11.240Z,18.87
2019-01-25T02:09:41.541Z,18.10
2019-01-25T02:12:11.882Z,19.40
2019-01-25T02:14:42.102Z,18.23
2019-01-25T02:17:12.307Z,18.05
2019-01-25T02:19:42.533Z,18.45
2019-01-25T02:22:12.670Z,18.57
2019-01-25T02:24:42.858Z,19.05
2019-01-25T02:27:12.939Z,18.60
2019-01-25T02:29:43.167Z,18.55
2019-01-25T02:32:13.331Z,18.17
2019-01-25T02:34:43.653Z,19.20
2019-01-25T02:37:13.815Z,17.32
2019-01-25T02:39:44.443Z,17.73
2019-01-25T02:42:14.592Z,17.23
2019-01-25T02:44:44.819Z,18.10
2019-01-25T02:47:14.999Z,17.70
2019-01-25T02:49:45.215Z,18.95
2019-01-25T02:52:15.368Z,18.90
2019-01-25T02:54:45.614Z,18.82
2019-01-25T02:57:15.774Z,19.32
2019-01-25T02:59:45.929Z,18.23
2019-01-25T03:02:16.092Z,20.23
2019-01-25T03:04:46.344Z,19.23
2019-01-25T03:07:16.498Z,19.20
2019-01-25T03:09:46.765Z,18.82
2019-01-25T03:12:16.930Z,18.17
2019-01-25T03:14:47.219Z,18.30
2019-01-25T03:17:17.406Z,19.42
2019-01-25T03:19:47.590Z,19.10
2019-01-25T03:22:17.772Z,18.80
2019-01-25T03:24:48.000Z,19.32
2019-01-25T03:27:18.168Z,19.85
2019-01-25T03:29:48.375Z,19.07
2019-01-25T03:32:18.718Z,19.02
2019-01-25T03:34:48.934Z,20.17
2019-01-25T03:37:19.145Z,18.57
2019-01-25T03:39:49.358Z,19.48
2019-01-25T03:42:19.594Z,18.67
2019-01-25T03:44:49.805Z,18.70
2019-01-25T03:47:19.964Z,19.65
2019-01-25T03:49:50.183Z,18.95
2019-01-25T03:52:20.344Z,20.45
2019-01-25T03:54:50.636Z,20.60
2019-01-25T03:57:20.790Z,18.92
2019-01-25T04:00:03.031Z,19.75
2019-01-25T04:02:33.366Z,18.52
2019-01-25T04:05:03.569Z,19.87
2019-01-25T04:07:33.698Z,19.42
2019-01-25T04:10:03.982Z,20.70
2019-01-25T04:12:34.152Z,19.45
2019-01-25T04:15:04.648Z,20.17
2019-01-25T04:17:34.881Z,20.45
2019-01-25T04:20:05.714Z,19.02
2019-01-25T04:22:35.846Z,19.02
2019-01-25T04:25:08.027Z,21.10
2019-01-25T04:27:39.241Z,18.85
2019-01-25T04:30:12.704Z,20.55
2019-01-25T04:32:42.836Z,20.80
2019-01-25T04:35:12.965Z,20.00
2019-01-25T04:37:43.089Z,20.65
2019-01-25T04:40:14.584Z,19.07
2019-01-25T04:42:44.637Z,19.73
2019-01-25T04:45:16.483Z,19.30
2019-01-25T04:47:47.604Z,20.60
2019-01-25T04:50:22.661Z,21.25
2019-01-25T04:52:53.014Z,21.30
2019-01-25T04:55:28.020Z,22.10
2019-01-25T04:58:29.654Z,19.73
2019-01-25T05:01:07.586Z,22.15
2019-01-25T05:03:37.807Z,20.43
2019-01-25T05:06:09.640Z,20.68
2019-01-25T05:08:39.756Z,21.40
2019-01-25T05:11:19.962Z,22.15
2019-01-25T05:13:49.126Z,20.10
2019-01-25T05:16:19.377Z,20.82
2019-01-25T05:18:49.574Z,21.77
2019-01-25T05:21:29.653Z,22.60
2019-01-25T05:23:59.807Z,20.02
2019-01-25T05:26:30.098Z,21.85
2019-01-25T05:29:00.257Z,21.80
2019-01-25T05:31:30.405Z,23.15
2019-01-25T05:34:00.566Z,22.62
2019-01-25T05:36:30.802Z,22.80
2019-01-25T05:39:00.893Z,22.45
2019-01-25T05:41:31.055Z,23.12
2019-01-25T05:44:01.034Z,22.17
2019-01-25T05:46:31.341Z,23.10
2019-01-25T05:49:01.377Z,23.80
2019-01-25T05:51:33.780Z,23.62
2019-01-25T05:54:03.203Z,24.27
2019-01-25T05:56:33.379Z,24.00
2019-01-25T05:59:03.429Z,21.95
2019-01-25T06:01:33.879Z,24.47
2019-01-25T06:04:03.935Z,23.52
2019-01-25T06:06:34.161Z,22.70
2019-01-25T06:09:05.765Z,21.20
2019-01-25T06:11:37.921Z,23.27
2019-01-25T06:14:09.150Z,23.90
2019-01-25T06:16:39.837Z,24.50
2019-01-25T06:19:09.913Z,22.75
2019-01-25T06:21:40.122Z,23.73
2019-01-25T06:24:10.215Z,23.85
2019-01-25T06:26:41.933Z,24.63
2019-01-25T06:29:11.997Z,25.27
2019-01-25T06:31:42.212Z,23.52
2019-01-25T06:34:12.272Z,23.52
2019-01-25T06:36:42.424Z,22.95
2019-01-25T06:39:12.531Z,23.47
2019-01-25T06:41:44.099Z,23.62
2019-01-25T06:44:14.388Z,24.37
2019-01-25T06:46:44.547Z,23.32
2019-01-25T06:49:14.665Z,24.57
2019-01-25T06:51:44.743Z,24.32
2019-01-25T06:54:14.874Z,24.25
2019-01-25T06:56:45.083Z,24.37
2019-01-25T06:59:17.906Z,22.90
2019-01-25T07:02:09.434Z,23.15
2019-01-25T07:04:39.519Z,22.58
2019-01-25T07:07:21.355Z,23.60
2019-01-25T07:09:51.551Z,23.22
2019-01-25T07:12:21.826Z,21.68
2019-01-25T07:14:51.864Z,24.63
2019-01-25T07:17:22.560Z,23.77
2019-01-25T07:19:53.018Z,23.70
2019-01-25T07:22:23.459Z,23.80
2019-01-25T07:24:57.221Z,24.40
2019-01-25T07:27:26.351Z,22.90
2019-01-25T07:29:56.570Z,25.02
2019-01-25T07:32:26.728Z,24.43
2019-01-25T07:34:56.888Z,24.12
2019-01-25T07:37:27.194Z,25.55
2019-01-25T07:39:57.436Z,24.87
2019-01-25T07:42:27.621Z,23.32
2019-01-25T07:44:57.661Z,25.80
2019-01-25T07:47:28.194Z,23.80
2019-01-25T07:49:58.338Z,23.22
2019-01-25T07:52:28.445Z,23.67
2019-01-25T07:54:58.510Z,23.80
2019-01-25T07:57:28.696Z,23.57
2019-01-25T07:59:58.797Z,24.57
2019-01-25T08:02:29.278Z,22.70
2019-01-25T08:04:59.472Z,23.87
2019-01-25T08:07:29.710Z,22.75
2019-01-25T08:09:59.771Z,24.07
2019-01-25T08:12:29.972Z,22.13
2019-01-25T08:15:00.496Z,23.18
2019-01-25T08:17:30.961Z,22.13
2019-01-25T08:20:01.329Z,21.40
2019-01-25T08:22:31.530Z,22.90
2019-01-25T08:25:01.665Z,23.67
2019-01-25T08:27:31.830Z,24.70
2019-01-25T08:30:02.135Z,23.77
2019-01-25T08:32:32.324Z,22.00
2019-01-25T08:35:02.541Z,23.15
2019-01-25T08:37:32.711Z,22.02
2019-01-25T08:40:02.826Z,22.52
2019-01-25T08:42:33.341Z,22.32
2019-01-25T08:45:03.476Z,22.62
2019-01-25T08:47:33.906Z,21.25
2019-01-25T08:50:04.366Z,21.65
2019-01-25T08:52:34.561Z,22.70
2019-01-25T08:55:04.848Z,22.25
2019-01-25T08:57:35.023Z,21.45
2019-01-25T09:00:07.389Z,21.73
2019-01-25T09:02:38.656Z,22.75
2019-01-25T09:05:10.049Z,22.02
2019-01-25T09:07:40.413Z,22.52
2019-01-25T09:10:13.138Z,20.92
2019-01-25T09:12:43.451Z,21.35
2019-01-25T09:15:19.169Z,21.30
2019-01-25T09:17:49.423Z,22.22
2019-01-25T09:20:21.384Z,24.40
2019-01-25T09:22:52.657Z,23.45
2019-01-25T09:25:23.291Z,24.27
2019-01-25T09:27:53.520Z,20.62
2019-01-25T09:30:23.469Z,21.40
2019-01-25T09:32:53.647Z,19.62
2019-01-25T09:35:23.764Z,20.40
2019-01-25T09:37:55.163Z,20.35
2019-01-25T09:40:26.366Z,18.60
2019-01-25T09:42:56.602Z,20.02
2019-01-25T09:45:26.691Z,17.77
2019-01-25T09:47:56.976Z,19.50
2019-01-25T09:50:27.114Z,17.52
2019-01-25T09:52:57.336Z,17.75
2019-01-25T09:55:27.580Z,18.65
2019-01-25T09:57:59.690Z,17.32
2019-01-25T10:00:33.318Z,15.98
2019-01-25T10:03:03.676Z,16.15
2019-01-25T10:05:33.818Z,15.98
2019-01-25T10:08:04.003Z,16.55
2019-01-25T10:10:34.381Z,16.80
2019-01-25T10:13:04.599Z,16.62
2019-01-25T10:15:34.761Z,17.40
2019-01-25T10:18:06.027Z,16.27
2019-01-25T10:20:36.298Z,16.93
2019-01-25T10:23:06.483Z,15.90
2019-01-25T10:25:36.617Z,17.70
2019-01-25T10:28:06.856Z,17.57
2019-01-25T10:30:37.965Z,18.67
2019-01-25T10:33:08.133Z,18.20
2019-01-25T10:35:38.194Z,17.57
2019-01-25T10:38:08.444Z,17.65
2019-01-25T10:40:38.472Z,17.67
2019-01-25T10:43:08.578Z,17.82
2019-01-25T10:45:39.403Z,18.45
2019-01-25T10:48:09.886Z,18.23
2019-01-25T10:50:39.906Z,17.98
2019-01-25T10:53:10.248Z,17.65
2019-01-25T10:55:40.364Z,15.93
2019-01-25T10:58:10.495Z,19.02
2019-01-25T11:00:40.616Z,19.10
2019-01-25T11:03:10.720Z,16.60
2019-01-25T11:05:40.744Z,19.02
2019-01-25T11:08:10.939Z,18.15
2019-01-25T11:10:41.089Z,17.35
2019-01-25T11:13:11.329Z,16.67
2019-01-25T11:15:41.434Z,16.27
2019-01-25T11:18:11.618Z,16.50
2019-01-25T11:20:41.738Z,16.37
2019-01-25T11:23:11.947Z,16.60
2019-01-25T11:25:42.112Z,16.65
2019-01-25T11:28:12.301Z,16.27
2019-01-25T11:30:42.401Z,15.35
2019-01-25T11:33:12.755Z,16.20
2019-01-25T11:35:42.866Z,15.60
2019-01-25T11:38:13.088Z,14.28
2019-01-25T11:40:44.356Z,14.28
2019-01-25T11:43:14.455Z,15.28
2019-01-25T11:45:44.570Z,14.50
2019-01-25T11:48:16.071Z,14.28
2019-01-25T11:50:47.132Z,14.93
2019-01-25T11:53:17.296Z,15.30
2019-01-25T11:55:47.440Z,14.15
2019-01-25T11:58:17.606Z,14.30
2019-01-25T12:00:47.676Z,16.50
2019-01-25T12:03:17.824Z,14.45
2019-01-25T12:05:47.929Z,16.30
2019-01-25T12:08:18.072Z,16.17
2019-01-25T12:10:48.151Z,15.80
2019-01-25T12:13:18.353Z,15.05
2019-01-25T12:15:48.461Z,15.45
2019-01-25T12:18:19.673Z,15.03
2019-01-25T12:20:49.846Z,15.38
2019-01-25T12:23:20.017Z,14.78
2019-01-25T12:25:50.162Z,13.78
2019-01-25T12:28:20.362Z,15.88
2019-01-25T12:30:50.583Z,15.20
2019-01-25T12:33:21.086Z,14.45
2019-01-25T12:35:51.255Z,13.93
2019-01-25T12:38:21.773Z,15.70
2019-01-25T12:40:54.705Z,13.53
2019-01-25T12:43:25.032Z,13.28
2019-01-25T12:45:55.097Z,14.33
2019-01-25T12:48:25.418Z,14.83
2019-01-25T12:51:16.303Z,15.55
2019-01-25T12:53:46.612Z,13.95
2019-01-25T12:56:16.766Z,14.73
2019-01-25T12:58:47.181Z,13.55
2019-01-25T13:01:17.339Z,15.00
2019-01-25T13:03:47.622Z,16.80
2019-01-25T13:06:17.829Z,14.10
2019-01-25T13:08:48.205Z,14.43
2019-01-25T13:11:18.487Z,14.28
2019-01-25T13:13:48.963Z,15.03
2019-01-25T13:16:19.264Z,13.85
2019-01-25T13:18:49.556Z,14.25
2019-01-25T13:21:19.852Z,14.68
2019-01-25T13:23:50.105Z,16.15
2019-01-25T13:26:20.260Z,14.47
2019-01-25T13:28:50.690Z,15.90
2019-01-25T13:31:21.020Z,16.37
2019-01-25T13:33:51.232Z,16.52
2019-01-25T13:36:21.357Z,16.12
2019-01-25T13:38:51.502Z,17.05
2019-01-25T13:41:21.616Z,15.43
2019-01-25T13:43:51.749Z,15.85
2019-01-25T13:46:21.838Z,16.37
2019-01-25T13:48:52.034Z,16.25
2019-01-25T13:51:22.145Z,16.32
2019-01-25T13:53:52.265Z,15.25
2019-01-25T13:56:23.845Z,17.07
2019-01-25T13:58:54.243Z,15.72
2019-01-25T14:01:24.390Z,15.68
2019-01-25T14:03:54.598Z,17.12
2019-01-25T14:06:25.733Z,17.57
2019-01-25T14:08:56.235Z,17.25
2019-01-25T14:11:26.509Z,18.07
2019-01-25T14:13:56.873Z,16.57
2019-01-25T14:16:27.288Z,16.10
2019-01-25T14:18:57.592Z,17.62
2019-01-25T14:21:27.814Z,17.02
2019-01-25T14:23:58.264Z,17.67
2019-01-25T14:26:28.557Z,17.87
2019-01-25T14:28:58.974Z,17.65
2019-01-25T14:31:29.106Z,17.62
2019-01-25T14:33:59.456Z,18.20
2019-01-25T14:36:29.681Z,18.52
2019-01-25T14:38:59.899Z,18.85
2019-01-25T14:41:30.030Z,18.30
2019-01-25T14:44:00.195Z,18.45
2019-01-25T14:46:30.373Z,18.42
2019-01-25T14:49:00.556Z,18.48
2019-01-25T14:51:30.746Z,18.98
2019-01-25T14:54:00.991Z,18.00
2019-01-25T14:56:31.371Z,18.98
2019-01-25T14:59:01.814Z,19.87
2019-01-25T15:01:32.136Z,19.20
2019-01-25T15:04:02.297Z,19.00
2019-01-25T15:06:32.469Z,18.32
2019-01-25T15:09:14.114Z,18.20
2019-01-25T15:11:44.428Z,19.15
2019-01-25T15:14:14.705Z,18.65
2019-01-25T15:16:44.795Z,19.27
2019-01-25T15:19:15.105Z,21.17
2019-01-25T15:21:45.287Z,20.45
2019-01-25T15:24:15.488Z,20.45
2019-01-25T15:26:45.600Z,19.07
2019-01-25T15:29:15.721Z,21.10
2019-01-25T15:31:45.923Z,19.77
2019-01-25T15:34:15.997Z,20.70
2019-01-25T15:36:46.163Z,21.15
2019-01-25T15:39:16.273Z,21.57
2019-01-25T15:41:46.537Z,22.62
2019-01-25T15:44:16.620Z,21.85
2019-01-25T15:46:46.716Z,23.22
2019-01-25T15:49:16.887Z,20.48
2019-01-25T15:51:48.054Z,21.05
2019-01-25T15:54:18.183Z,21.27
2019-01-25T15:56:48.388Z,21.52
2019-01-25T15:59:18.785Z,22.98
2019-01-25T16:01:49.105Z,21.90
2019-01-25T16:04:19.182Z,22.85
2019-01-25T16:06:49.395Z,22.35
2019-01-25T16:09:23.470Z,22.25
2019-01-25T16:11:51.507Z,22.40
2019-01-25T16:14:22.937Z,23.25
2019-01-25T16:16:53.210Z,21.37
2019-01-25T16:19:23.453Z,20.20
2019-01-25T16:21:53.654Z,21.73
2019-01-25T16:24:23.779Z,22.77
2019-01-25T16:26:53.976Z,21.45
2019-01-25T16:29:25.108Z,22.62
2019-01-25T16:31:55.396Z,22.45
2019-01-25T16:34:25.638Z,22.35
2019-01-25T16:36:55.819Z,21.82
2019-01-25T16:39:26.002Z,22.87
2019-01-25T16:41:56.268Z,21.82
2019-01-25T16:44:26.394Z,22.02
2019-01-25T16:46:56.562Z,21.93
2019-01-25T16:49:26.800Z,20.85
2019-01-25T16:51:57.010Z,21.97
2019-01-25T16:54:27.243Z,22.13
2019-01-25T16:56:57.309Z,21.52
2019-01-25T16:59:27.514Z,22.07
2019-01-25T17:01:57.645Z,24.25
2019-01-25T17:04:27.830Z,24.90
2019-01-25T17:06:57.973Z,22.58
2019-01-25T17:09:28.172Z,23.18
2019-01-25T17:11:58.284Z,22.45
2019-01-25T17:14:33.308Z,23.73
2019-01-25T17:17:00.306Z,23.50
2019-01-25T17:19:30.478Z,23.30
2019-01-25T17:22:00.631Z,22.42
2019-01-25T17:24:30.725Z,24.10
2019-01-25T17:27:00.903Z,28.10
2019-01-25T17:29:31.085Z,25.68
2019-01-25T17:32:01.185Z,23.83
2019-01-25T17:34:31.273Z,23.45
2019-01-25T17:37:01.396Z,24.35
2019-01-25T17:39:31.600Z,23.60
2019-01-25T17:42:01.729Z,25.20
2019-01-25T17:44:32.013Z,24.02
2019-01-25T17:47:02.106Z,24.92
2019-01-25T17:49:32.267Z,23.85
2019-01-25T17:52:02.582Z,24.85
2019-01-25T17:54:32.748Z,25.32
2019-01-25T17:57:03.745Z,24.10
2019-01-25T17:59:34.029Z,24.10
2019-01-25T18:02:04.250Z,23.92
2019-01-25T18:04:34.370Z,24.35
2019-01-25T18:07:04.497Z,24.80
2019-01-25T18:09:34.717Z,24.77
2019-01-25T18:12:04.842Z,20.37
2019-01-25T18:14:35.035Z,20.70
2019-01-25T18:17:05.180Z,20.25
2019-01-25T18:19:35.632Z,20.35
2019-01-25T18:22:05.840Z,19.98
2019-01-25T18:24:36.082Z,18.05
2019-01-25T18:27:06.282Z,16.23
2019-01-25T18:29:48.693Z,16.75
2019-01-25T18:32:18.844Z,15.48
2019-01-25T18:34:49.111Z,14.90
2019-01-25T18:37:19.309Z,16.60
2019-01-25T18:39:49.625Z,16.07
2019-01-25T18:42:19.881Z,14.43
2019-01-25T18:44:56.506Z,14.13
2019-01-25T18:47:21.934Z,15.18
2019-01-25T18:49:52.540Z,13.70
2019-01-25T18:52:22.768Z,14.80
2019-01-25T18:54:53.001Z,14.13
2019-01-25T18:57:35.210Z,13.48
2019-01-25T19:00:06.633Z,13.05
2019-01-25T19:02:36.825Z,13.13
2019-01-25T19:05:07.706Z,12.35
2019-01-25T19:07:37.868Z,13.10
2019-01-25T19:10:10.851Z,13.55
2019-01-25T19:12:41.274Z,13.65
2019-01-25T19:15:13.498Z,14.23
2019-01-25T19:17:43.764Z,13.00
2019-01-25T19:20:14.150Z,12.85
2019-01-25T19:22:44.354Z,13.00
2019-01-25T19:25:14.651Z,13.80
2019-01-25T19:27:46.769Z,13.72
2019-01-25T19:30:26.143Z,13.00
2019-01-25T19:32:57.336Z,14.07
2019-01-25T19:35:27.572Z,14.35
2019-01-25T19:37:57.923Z,14.10
2019-01-25T19:40:29.625Z,13.72
2019-01-25T19:42:59.812Z,13.78
2019-01-25T19:45:30.061Z,14.58
2019-01-25T19:48:00.246Z,13.85
2019-01-25T19:50:30.426Z,15.38
2019-01-25T19:53:00.617Z,13.95
2019-01-25T19:55:30.826Z,14.43
2019-01-25T19:58:01.028Z,13.83
2019-01-25T20:00:33.927Z,14.70
2019-01-25T20:03:04.113Z,13.88
2019-01-25T20:05:34.304Z,13.95
2019-01-25T20:08:04.529Z,15.20
2019-01-25T20:10:34.743Z,14.35
2019-01-25T20:13:05.128Z,13.93
2019-01-25T20:15:35.352Z,14.20
2019-01-25T20:18:05.644Z,14.05
2019-01-25T20:20:36.277Z,15.30
2019-01-25T20:23:06.477Z,14.40
2019-01-25T20:25:37.769Z,15.72
2019-01-25T20:28:09.692Z,14.43
2019-01-25T20:30:39.933Z,15.10
2019-01-25T20:33:10.115Z,14.35
2019-01-25T20:35:41.936Z,15.13
2019-01-25T20:38:12.157Z,14.47
2019-01-25T20:40:42.428Z,13.45
2019-01-25T20:43:13.090Z,13.40
2019-01-25T20:45:43.629Z,13.93
2019-01-25T20:48:13.829Z,14.85
2019-01-25T20:50:45.262Z,13.90
2019-01-25T20:53:15.702Z,13.20
2019-01-25T20:55:46.931Z,14.90
2019-01-25T20:58:17.185Z,14.38
2019-01-25T21:00:47.383Z,14.50
2019-01-25T21:03:17.719Z,14.73
2019-01-25T21:05:47.941Z,13.62
2019-01-25T21:08:18.232Z,15.48
2019-01-25T21:10:48.410Z,13.78
2019-01-25T21:13:18.759Z,14.55
2019-01-25T21:15:48.932Z,14.45
2019-01-25T21:18:19.207Z,13.75
2019-01-25T21:20:49.421Z,13.90
2019-01-25T21:23:19.655Z,13.22
2019-01-25T21:25:49.800Z,15.83
2019-01-25T21:28:19.974Z,14.65
2019-01-25T21:30:50.062Z,14.87
2019-01-25T21:33:20.269Z,13.90
2019-01-25T21:35:50.480Z,14.47
2019-01-25T21:38:20.703Z,13.80
2019-01-25T21:40:50.903Z,14.00
2019-01-25T21:43:21.134Z,15.58
2019-01-25T21:45:51.321Z,13.98
2019-01-25T21:48:21.496Z,13.93
2019-01-25T21:50:51.617Z,13.18
2019-01-25T21:53:21.858Z,13.70
2019-01-25T21:55:52.125Z,14.33
2019-01-25T21:58:22.291Z,15.68
2019-01-25T22:00:52.364Z,14.98
2019-01-25T22:03:23.334Z,14.00
2019-01-25T22:05:53.433Z,13.95
2019-01-25T22:08:23.647Z,13.83
2019-01-25T22:10:54.147Z,13.10
2019-01-25T22:13:24.290Z,13.28
2019-01-25T22:15:54.592Z,12.60
2019-01-25T22:18:24.742Z,13.45
2019-01-25T22:20:54.941Z,13.85
2019-01-25T22:23:25.016Z,13.40
2019-01-25T22:25:55.225Z,13.38
2019-01-25T22:28:25.299Z,13.90
2019-01-25T22:30:55.476Z,13.40
2019-01-25T22:33:25.594Z,12.82
2019-01-25T22:35:55.752Z,13.80
2019-01-25T22:38:25.925Z,14.20
2019-01-25T22:40:56.118Z,14.07
2019-01-25T22:43:26.318Z,13.00
2019-01-25T22:45:58.818Z,13.30
2019-01-25T22:48:28.351Z,13.38
2019-01-25T22:50:58.455Z,13.45
2019-01-25T22:53:28.845Z,13.18
2019-01-25T22:55:59.081Z,12.78
2019-01-25T22:58:29.143Z,14.23
2019-01-25T23:01:15.757Z,14.28
2019-01-25T23:04:13.349Z,12.65
2019-01-25T23:06:55.744Z,13.85
2019-01-25T23:09:34.611Z,13.53
2019-01-25T23:12:04.779Z,13.40
2019-01-25T23:14:34.904Z,13.38
2019-01-25T23:17:05.060Z,12.47
2019-01-25T23:19:35.233Z,13.13
2019-01-25T23:22:05.449Z,13.30
2019-01-25T23:24:35.581Z,11.65
2019-01-25T23:27:05.679Z,12.33
2019-01-25T23:29:35.725Z,12.88
2019-01-25T23:32:05.902Z,12.68
2019-01-25T23:34:36.089Z,12.43
2019-01-25T23:37:06.277Z,12.37
2019-01-25T23:39:36.419Z,12.63
2019-01-25T23:42:06.674Z,12.58
2019-01-25T23:44:36.768Z,12.58
2019-01-25T23:47:09.178Z,12.07
2019-01-25T23:49:39.343Z,11.83
2019-01-25T23:52:09.383Z,11.68
2019-01-25T23:54:39.500Z,11.85
2019-01-25T23:57:09.617Z,12.30
2019-01-25T23:59:39.783Z,12.15
